sensor_id;sensor_type;location;lat;lon;timestamp;pressure;altitude;pressure_sealevel;temperature;humidity
19884;BME280;10104;50.732;10.174;2023-03-31T00:01:26;97068.13;;;12.21;85.91
19884;BME280;10104;50.732;10.174;2023-03-31T00:03:48;97070.00;;;12.14;86.47
19884;BME280;10104;50.732;10.174;2023-03-31T00:06:11;97068.41;;;12.31;85.55
19884;BME280;10104;50.732;10.174;2023-03-31T00:08:39;97063.53;;;12.28;85.66
19884;BME280;10104;50.732;10.174;2023-03-31T00:11:03;97066.56;;;12.32;85.26
19884;BME280;10104;50.732;10.174;2023-03-31T00:13:25;97067.59;;;12.31;84.76
19884;BME280;10104;50.732;10.174;2023-03-31T00:15:47;97059.44;;;12.07;85.32
19884;BME280;10104;50.732;10.174;2023-03-31T00:18:08;97058.13;;;12.16;85.77
19884;BME280;10104;50.732;10.174;2023-03-31T00:20:30;97061.56;;;12.42;84.72
19884;BME280;10104;50.732;10.174;2023-03-31T00:22:54;97057.78;;;12.31;84.93
19884;BME280;10104;50.732;10.174;2023-03-31T00:25:18;97058.47;;;12.45;84.30
19884;BME280;10104;50.732;10.174;2023-03-31T00:27:43;97052.47;;;12.31;84.15
19884;BME280;10104;50.732;10.174;2023-03-31T00:30:05;97046.81;;;12.28;85.07
19884;BME280;10104;50.732;10.174;2023-03-31T00:32:27;97040.09;;;12.43;84.33
19884;BME280;10104;50.732;10.174;2023-03-31T00:34:49;97037.97;;;12.34;83.32
19884;BME280;10104;50.732;10.174;2023-03-31T00:37:10;97029.47;;;12.43;83.80
19884;BME280;10104;50.732;10.174;2023-03-31T00:39:36;97022.31;;;12.07;85.57
19884;BME280;10104;50.732;10.174;2023-03-31T00:42:01;97016.63;;;12.22;85.37
19884;BME280;10104;50.732;10.174;2023-03-31T00:44:24;97016.59;;;12.04;86.66
19884;BME280;10104;50.732;10.174;2023-03-31T00:49:38;97011.97;;;12.18;85.26
19884;BME280;10104;50.732;10.174;2023-03-31T00:54:26;97010.72;;;12.02;86.34
19884;BME280;10104;50.732;10.174;2023-03-31T00:56:50;97014.50;;;12.12;85.55
19884;BME280;10104;50.732;10.174;2023-03-31T00:59:14;97004.88;;;11.93;86.05
19884;BME280;10104;50.732;10.174;2023-03-31T01:01:37;97008.72;;;11.72;88.45
19884;BME280;10104;50.732;10.174;2023-03-31T01:04:02;97001.53;;;11.80;88.49
19884;BME280;10104;50.732;10.174;2023-03-31T01:06:24;97000.34;;;11.75;87.90
19884;BME280;10104;50.732;10.174;2023-03-31T01:08:47;96995.78;;;11.58;87.86
19884;BME280;10104;50.732;10.174;2023-03-31T01:11:13;96990.63;;;11.63;88.47
19884;BME280;10104;50.732;10.174;2023-03-31T01:13:38;96987.16;;;11.62;88.95
19884;BME280;10104;50.732;10.174;2023-03-31T01:16:01;96989.22;;;11.60;89.66
19884;BME280;10104;50.732;10.174;2023-03-31T01:18:23;96984.00;;;11.54;89.74
19884;BME280;10104;50.732;10.174;2023-03-31T01:35:01;96965.75;;;11.08;98.80
19884;BME280;10104;50.732;10.174;2023-03-31T01:45:57;96944.56;;;11.08;100.00
19884;BME280;10104;50.732;10.174;2023-03-31T01:50:56;96931.94;;;11.10;100.00
19884;BME280;10104;50.732;10.174;2023-03-31T01:55:52;96911.72;;;11.40;99.15
19884;BME280;10104;50.732;10.174;2023-03-31T01:58:23;96911.59;;;11.28;100.00
19884;BME280;10104;50.732;10.174;2023-03-31T02:00:51;96910.44;;;11.43;99.02
19884;BME280;10104;50.732;10.174;2023-03-31T02:03:21;96899.16;;;11.54;98.34
19884;BME280;10104;50.732;10.174;2023-03-31T02:05:48;96889.78;;;11.76;96.79
19884;BME280;10104;50.732;10.174;2023-03-31T02:08:18;96884.00;;;11.79;95.97
19884;BME280;10104;50.732;10.174;2023-03-31T02:10:43;96880.66;;;11.90;95.27
19884;BME280;10104;50.732;10.174;2023-03-31T02:13:06;96877.69;;;11.80;94.94
19884;BME280;10104;50.732;10.174;2023-03-31T02:15:33;96879.84;;;11.90;94.40
19884;BME280;10104;50.732;10.174;2023-03-31T02:18:00;96875.69;;;11.94;94.32
19884;BME280;10104;50.732;10.174;2023-03-31T02:20:26;96866.72;;;11.95;94.52
19884;BME280;10104;50.732;10.174;2023-03-31T02:22:52;96865.16;;;12.05;93.84
19884;BME280;10104;50.732;10.174;2023-03-31T02:25:18;96852.06;;;12.22;93.43
19884;BME280;10104;50.732;10.174;2023-03-31T02:27:45;96852.25;;;12.27;92.54
19884;BME280;10104;50.732;10.174;2023-03-31T02:30:09;96851.72;;;12.19;92.94
19884;BME280;10104;50.732;10.174;2023-03-31T02:32:37;96849.88;;;12.19;92.76
19884;BME280;10104;50.732;10.174;2023-03-31T02:35:00;96847.16;;;12.26;92.19
19884;BME280;10104;50.732;10.174;2023-03-31T02:37:22;96851.47;;;12.38;91.51
19884;BME280;10104;50.732;10.174;2023-03-31T02:39:46;96848.47;;;12.16;92.75
19884;BME280;10104;50.732;10.174;2023-03-31T02:42:09;96844.88;;;12.11;93.01
19884;BME280;10104;50.732;10.174;2023-03-31T02:44:35;96841.38;;;11.81;94.74
19884;BME280;10104;50.732;10.174;2023-03-31T02:46:57;96835.97;;;12.05;93.72
19884;BME280;10104;50.732;10.174;2023-03-31T02:49:19;96842.09;;;11.88;94.96
19884;BME280;10104;50.732;10.174;2023-03-31T03:00:23;96831.94;;;10.99;99.81
19884;BME280;10104;50.732;10.174;2023-03-31T03:06:13;96832.50;;;10.82;100.00
19884;BME280;10104;50.732;10.174;2023-03-31T03:11:44;96819.97;;;10.71;100.00
19884;BME280;10104;50.732;10.174;2023-03-31T03:14:16;96816.63;;;10.51;100.00
19884;BME280;10104;50.732;10.174;2023-03-31T03:16:47;96812.97;;;10.52;100.00
19884;BME280;10104;50.732;10.174;2023-03-31T03:19:09;96802.66;;;10.69;100.00
19884;BME280;10104;50.732;10.174;2023-03-31T03:21:38;96803.56;;;10.81;100.00
19884;BME280;10104;50.732;10.174;2023-03-31T03:23:59;96800.25;;;10.67;100.00
19884;BME280;10104;50.732;10.174;2023-03-31T03:26:22;96794.72;;;10.69;100.00
19884;BME280;10104;50.732;10.174;2023-03-31T03:28:44;96797.56;;;10.74;100.00
19884;BME280;10104;50.732;10.174;2023-03-31T03:31:05;96790.19;;;10.76;100.00
19884;BME280;10104;50.732;10.174;2023-03-31T03:33:30;96790.28;;;10.87;100.00
19884;BME280;10104;50.732;10.174;2023-03-31T03:35:51;96787.78;;;10.92;100.00
19884;BME280;10104;50.732;10.174;2023-03-31T03:38:13;96778.91;;;11.05;100.00
19884;BME280;10104;50.732;10.174;2023-03-31T03:40:34;96777.00;;;11.12;100.00
19884;BME280;10104;50.732;10.174;2023-03-31T03:42:56;96768.59;;;11.40;100.00
19884;BME280;10104;50.732;10.174;2023-03-31T03:45:17;96756.34;;;11.57;100.00
19884;BME280;10104;50.732;10.174;2023-03-31T03:47:38;96751.31;;;11.67;98.93
19884;BME280;10104;50.732;10.174;2023-03-31T03:50:01;96747.59;;;11.75;97.88
19884;BME280;10104;50.732;10.174;2023-03-31T03:52:23;96738.22;;;11.72;97.68
19884;BME280;10104;50.732;10.174;2023-03-31T03:54:45;96722.25;;;11.61;98.28
19884;BME280;10104;50.732;10.174;2023-03-31T03:57:07;96714.75;;;11.58;98.72
19884;BME280;10104;50.732;10.174;2023-03-31T03:59:28;96705.19;;;11.57;98.91
19884;BME280;10104;50.732;10.174;2023-03-31T04:01:50;96706.53;;;11.48;99.55
19884;BME280;10104;50.732;10.174;2023-03-31T04:04:13;96699.13;;;11.50;99.19
19884;BME280;10104;50.732;10.174;2023-03-31T04:06:34;96687.09;;;11.54;98.76
19884;BME280;10104;50.732;10.174;2023-03-31T04:08:56;96682.56;;;11.54;98.86
19884;BME280;10104;50.732;10.174;2023-03-31T04:11:18;96685.88;;;11.50;99.14
19884;BME280;10104;50.732;10.174;2023-03-31T04:13:39;96677.81;;;11.45;98.95
19884;BME280;10104;50.732;10.174;2023-03-31T04:16:01;96671.94;;;11.24;100.00
19884;BME280;10104;50.732;10.174;2023-03-31T04:18:22;96670.03;;;11.13;100.00
19884;BME280;10104;50.732;10.174;2023-03-31T04:20:44;96665.25;;;11.04;100.00
19884;BME280;10104;50.732;10.174;2023-03-31T04:23:05;96654.72;;;11.15;100.00
19884;BME280;10104;50.732;10.174;2023-03-31T04:25:30;96629.94;;;11.10;100.00
19884;BME280;10104;50.732;10.174;2023-03-31T04:27:52;96620.59;;;11.07;100.00
19884;BME280;10104;50.732;10.174;2023-03-31T04:30:16;96613.31;;;11.03;100.00
19884;BME280;10104;50.732;10.174;2023-03-31T04:32:43;96595.59;;;11.03;100.00
19884;BME280;10104;50.732;10.174;2023-03-31T04:35:05;96590.22;;;10.91;100.00
19884;BME280;10104;50.732;10.174;2023-03-31T04:37:28;96581.56;;;10.84;100.00
19884;BME280;10104;50.732;10.174;2023-03-31T04:39:55;96576.03;;;10.86;100.00
19884;BME280;10104;50.732;10.174;2023-03-31T04:42:16;96583.59;;;10.82;100.00
19884;BME280;10104;50.732;10.174;2023-03-31T04:44:38;96581.09;;;10.87;100.00
19884;BME280;10104;50.732;10.174;2023-03-31T04:46:59;96573.78;;;11.01;100.00
19884;BME280;10104;50.732;10.174;2023-03-31T04:49:23;96574.31;;;11.10;100.00
19884;BME280;10104;50.732;10.174;2023-03-31T04:51:45;96587.03;;;11.01;100.00
19884;BME280;10104;50.732;10.174;2023-03-31T04:54:07;96590.94;;;10.99;100.00
19884;BME280;10104;50.732;10.174;2023-03-31T04:56:28;96595.13;;;10.88;100.00
19884;BME280;10104;50.732;10.174;2023-03-31T04:58:50;96603.09;;;10.88;100.00
19884;BME280;10104;50.732;10.174;2023-03-31T05:01:11;96607.56;;;10.87;100.00
19884;BME280;10104;50.732;10.174;2023-03-31T05:03:38;96607.16;;;10.72;100.00
19884;BME280;10104;50.732;10.174;2023-03-31T05:06:00;96604.28;;;10.74;100.00
19884;BME280;10104;50.732;10.174;2023-03-31T05:08:22;96597.72;;;10.94;100.00
19884;BME280;10104;50.732;10.174;2023-03-31T05:10:43;96592.59;;;11.11;100.00
19884;BME280;10104;50.732;10.174;2023-03-31T05:13:05;96595.13;;;11.06;100.00
19884;BME280;10104;50.732;10.174;2023-03-31T05:15:26;96580.34;;;11.17;100.00
19884;BME280;10104;50.732;10.174;2023-03-31T05:17:48;96587.13;;;11.24;99.55
19884;BME280;10104;50.732;10.174;2023-03-31T05:20:10;96570.72;;;11.34;98.28
19884;BME280;10104;50.732;10.174;2023-03-31T05:22:37;96556.16;;;11.25;98.41
19884;BME280;10104;50.732;10.174;2023-03-31T05:24:59;96546.03;;;11.22;98.19
19884;BME280;10104;50.732;10.174;2023-03-31T05:27:21;96542.13;;;11.36;97.18
19884;BME280;10104;50.732;10.174;2023-03-31T05:29:42;96546.28;;;11.32;96.95
19884;BME280;10104;50.732;10.174;2023-03-31T05:32:04;96543.56;;;11.50;95.56
19884;BME280;10104;50.732;10.174;2023-03-31T05:34:25;96536.63;;;11.49;94.62
19884;BME280;10104;50.732;10.174;2023-03-31T05:36:47;96543.59;;;11.62;94.26
19884;BME280;10104;50.732;10.174;2023-03-31T05:39:10;96538.47;;;11.79;93.08
19884;BME280;10104;50.732;10.174;2023-03-31T05:41:32;96538.97;;;11.57;92.17
19884;BME280;10104;50.732;10.174;2023-03-31T05:43:54;96545.78;;;11.53;92.74
19884;BME280;10104;50.732;10.174;2023-03-31T05:46:15;96531.94;;;11.63;92.87
19884;BME280;10104;50.732;10.174;2023-03-31T05:48:38;96533.72;;;11.81;90.46
19884;BME280;10104;50.732;10.174;2023-03-31T05:51:00;96537.63;;;11.66;89.77
19884;BME280;10104;50.732;10.174;2023-03-31T05:53:22;96531.81;;;11.58;91.20
19884;BME280;10104;50.732;10.174;2023-03-31T05:55:43;96524.09;;;11.56;91.83
19884;BME280;10104;50.732;10.174;2023-03-31T05:58:05;96527.50;;;11.33;91.68
19884;BME280;10104;50.732;10.174;2023-03-31T06:00:28;96520.63;;;11.44;92.20
19884;BME280;10104;50.732;10.174;2023-03-31T06:02:50;96517.97;;;11.56;90.99
19884;BME280;10104;50.732;10.174;2023-03-31T06:05:11;96509.59;;;11.59;90.32
19884;BME280;10104;50.732;10.174;2023-03-31T06:07:33;96505.91;;;11.60;90.80
19884;BME280;10104;50.732;10.174;2023-03-31T06:09:54;96504.78;;;11.79;89.92
19884;BME280;10104;50.732;10.174;2023-03-31T06:12:16;96497.41;;;11.81;89.78
19884;BME280;10104;50.732;10.174;2023-03-31T06:14:37;96492.09;;;11.93;89.56
19884;BME280;10104;50.732;10.174;2023-03-31T06:16:59;96479.63;;;12.28;87.65
19884;BME280;10104;50.732;10.174;2023-03-31T06:19:20;96487.25;;;12.13;87.14
19884;BME280;10104;50.732;10.174;2023-03-31T06:21:42;96485.31;;;11.97;87.00
19884;BME280;10104;50.732;10.174;2023-03-31T06:24:04;96486.22;;;12.26;85.70
19884;BME280;10104;50.732;10.174;2023-03-31T06:26:26;96485.44;;;11.90;85.78
19884;BME280;10104;50.732;10.174;2023-03-31T06:28:48;96495.56;;;11.93;87.77
19884;BME280;10104;50.732;10.174;2023-03-31T06:31:14;96489.22;;;11.83;87.85
19884;BME280;10104;50.732;10.174;2023-03-31T06:33:38;96481.59;;;11.98;88.41
19884;BME280;10104;50.732;10.174;2023-03-31T06:36:00;96475.38;;;12.04;87.91
19884;BME280;10104;50.732;10.174;2023-03-31T06:38:24;96479.84;;;12.38;86.89
19884;BME280;10104;50.732;10.174;2023-03-31T06:40:46;96460.69;;;12.36;86.92
19884;BME280;10104;50.732;10.174;2023-03-31T06:43:07;96448.28;;;12.53;85.76
19884;BME280;10104;50.732;10.174;2023-03-31T06:45:29;96462.50;;;12.47;85.03
19884;BME280;10104;50.732;10.174;2023-03-31T06:47:50;96469.78;;;12.52;85.38
19884;BME280;10104;50.732;10.174;2023-03-31T06:50:12;96473.72;;;12.38;85.78
19884;BME280;10104;50.732;10.174;2023-03-31T06:52:34;96480.81;;;12.21;87.03
19884;BME280;10104;50.732;10.174;2023-03-31T06:54:56;96470.25;;;12.37;86.51
19884;BME280;10104;50.732;10.174;2023-03-31T06:57:17;96456.97;;;12.49;86.11
19884;BME280;10104;50.732;10.174;2023-03-31T06:59:39;96460.69;;;12.36;86.17
19884;BME280;10104;50.732;10.174;2023-03-31T07:02:01;96457.19;;;12.47;86.02
19884;BME280;10104;50.732;10.174;2023-03-31T07:04:22;96452.94;;;12.46;86.36
19884;BME280;10104;50.732;10.174;2023-03-31T07:06:44;96455.19;;;12.26;86.61
19884;BME280;10104;50.732;10.174;2023-03-31T07:09:06;96444.16;;;12.46;85.47
19884;BME280;10104;50.732;10.174;2023-03-31T07:11:27;96456.88;;;12.44;86.06
19884;BME280;10104;50.732;10.174;2023-03-31T07:13:49;96462.66;;;12.29;87.29
19884;BME280;10104;50.732;10.174;2023-03-31T07:16:10;96455.88;;;12.22;88.15
19884;BME280;10104;50.732;10.174;2023-03-31T07:18:34;96449.78;;;12.09;88.90
19884;BME280;10104;50.732;10.174;2023-03-31T07:20:57;96448.75;;;11.99;90.50
19884;BME280;10104;50.732;10.174;2023-03-31T07:23:19;96438.25;;;12.15;89.65
19884;BME280;10104;50.732;10.174;2023-03-31T07:25:41;96434.88;;;12.20;90.11
19884;BME280;10104;50.732;10.174;2023-03-31T07:28:04;96430.84;;;12.18;89.53
19884;BME280;10104;50.732;10.174;2023-03-31T07:30:27;96422.97;;;12.23;89.49
19884;BME280;10104;50.732;10.174;2023-03-31T07:32:49;96417.50;;;12.01;90.83
19884;BME280;10104;50.732;10.174;2023-03-31T07:35:11;96415.28;;;11.98;92.09
19884;BME280;10104;50.732;10.174;2023-03-31T07:37:37;96398.69;;;12.02;92.21
19884;BME280;10104;50.732;10.174;2023-03-31T07:39:59;96394.84;;;12.22;91.40
19884;BME280;10104;50.732;10.174;2023-03-31T07:42:20;96390.00;;;12.47;90.22
19884;BME280;10104;50.732;10.174;2023-03-31T07:44:42;96384.84;;;12.69;89.47
19884;BME280;10104;50.732;10.174;2023-03-31T07:47:03;96370.63;;;12.91;87.68
19884;BME280;10104;50.732;10.174;2023-03-31T07:49:26;96368.72;;;12.87;87.21
19884;BME280;10104;50.732;10.174;2023-03-31T07:51:47;96360.97;;;12.85;88.11
19884;BME280;10104;50.732;10.174;2023-03-31T07:54:09;96362.84;;;13.02;86.88
19884;BME280;10104;50.732;10.174;2023-03-31T07:56:30;96363.47;;;13.09;87.27
19884;BME280;10104;50.732;10.174;2023-03-31T07:58:52;96360.75;;;13.04;87.92
19884;BME280;10104;50.732;10.174;2023-03-31T08:01:19;96354.84;;;13.13;86.80
19884;BME280;10104;50.732;10.174;2023-03-31T08:03:43;96346.50;;;12.93;87.67
19884;BME280;10104;50.732;10.174;2023-03-31T08:06:04;96341.25;;;12.81;88.90
19884;BME280;10104;50.732;10.174;2023-03-31T08:08:26;96351.78;;;12.76;88.87
19884;BME280;10104;50.732;10.174;2023-03-31T08:10:48;96343.16;;;12.69;89.48
19884;BME280;10104;50.732;10.174;2023-03-31T08:13:09;96332.31;;;12.71;89.28
19884;BME280;10104;50.732;10.174;2023-03-31T08:15:31;96330.56;;;12.76;89.18
19884;BME280;10104;50.732;10.174;2023-03-31T08:17:53;96317.94;;;12.83;88.00
19884;BME280;10104;50.732;10.174;2023-03-31T08:20:14;96312.13;;;12.70;89.30
19884;BME280;10104;50.732;10.174;2023-03-31T08:22:37;96308.25;;;12.77;89.10
19884;BME280;10104;50.732;10.174;2023-03-31T08:24:58;96292.06;;;12.79;87.48
19884;BME280;10104;50.732;10.174;2023-03-31T08:27:20;96281.13;;;12.75;88.19
19884;BME280;10104;50.732;10.174;2023-03-31T08:29:42;96286.44;;;12.59;89.57
19884;BME280;10104;50.732;10.174;2023-03-31T08:32:04;96282.75;;;12.76;88.35
19884;BME280;10104;50.732;10.174;2023-03-31T08:34:27;96275.88;;;12.80;88.21
19884;BME280;10104;50.732;10.174;2023-03-31T08:36:49;96271.06;;;12.94;88.03
19884;BME280;10104;50.732;10.174;2023-03-31T08:39:10;96273.38;;;12.90;87.63
19884;BME280;10104;50.732;10.174;2023-03-31T08:44:33;96268.66;;;12.92;88.21
19884;BME280;10104;50.732;10.174;2023-03-31T08:46:57;96263.25;;;13.04;88.22
19884;BME280;10104;50.732;10.174;2023-03-31T08:49:21;96261.22;;;13.11;88.09
19884;BME280;10104;50.732;10.174;2023-03-31T08:51:48;96260.28;;;13.17;88.17
19884;BME280;10104;50.732;10.174;2023-03-31T08:54:18;96255.59;;;13.24;87.52
19884;BME280;10104;50.732;10.174;2023-03-31T08:56:44;96254.84;;;13.29;87.28
19884;BME280;10104;50.732;10.174;2023-03-31T08:59:29;96252.59;;;13.21;87.63
19884;BME280;10104;50.732;10.174;2023-03-31T09:07:01;96238.84;;;13.24;88.10
19884;BME280;10104;50.732;10.174;2023-03-31T09:15:01;96231.84;;;12.84;91.41
19884;BME280;10104;50.732;10.174;2023-03-31T09:17:30;96231.56;;;12.64;93.12
19884;BME280;10104;50.732;10.174;2023-03-31T09:20:15;96248.84;;;12.50;95.40
19884;BME280;10104;50.732;10.174;2023-03-31T09:22:46;96271.88;;;12.16;98.08
19884;BME280;10104;50.732;10.174;2023-03-31T09:25:19;96299.94;;;11.49;100.00
19884;BME280;10104;50.732;10.174;2023-03-31T09:27:44;96302.03;;;10.88;97.88
19884;BME280;10104;50.732;10.174;2023-03-31T09:30:18;96287.63;;;10.61;97.13
19884;BME280;10104;50.732;10.174;2023-03-31T09:32:42;96286.91;;;10.42;97.62
19884;BME280;10104;50.732;10.174;2023-03-31T09:35:16;96282.03;;;10.39;97.52
19884;BME280;10104;50.732;10.174;2023-03-31T09:37:38;96283.78;;;10.45;98.24
19884;BME280;10104;50.732;10.174;2023-03-31T09:40:03;96288.38;;;10.38;100.00
19884;BME280;10104;50.732;10.174;2023-03-31T09:42:28;96282.41;;;10.43;99.78
19884;BME280;10104;50.732;10.174;2023-03-31T09:44:49;96268.91;;;10.33;98.80
19884;BME280;10104;50.732;10.174;2023-03-31T09:49:39;96230.75;;;10.99;97.57
19884;BME280;10104;50.732;10.174;2023-03-31T09:54:47;96206.53;;;11.70;93.88
19884;BME280;10104;50.732;10.174;2023-03-31T09:57:22;96195.34;;;12.08;91.19
19884;BME280;10104;50.732;10.174;2023-03-31T09:59:49;96189.81;;;12.43;90.17
19884;BME280;10104;50.732;10.174;2023-03-31T10:02:38;96175.25;;;13.01;89.32
19884;BME280;10104;50.732;10.174;2023-03-31T10:05:03;96181.91;;;13.63;85.87
19884;BME280;10104;50.732;10.174;2023-03-31T10:07:26;96175.94;;;13.78;85.15
19884;BME280;10104;50.732;10.174;2023-03-31T10:09:47;96168.84;;;13.89;86.11
19884;BME280;10104;50.732;10.174;2023-03-31T10:12:15;96158.34;;;13.77;86.96
19884;BME280;10104;50.732;10.174;2023-03-31T10:14:45;96163.28;;;14.17;85.48
19884;BME280;10104;50.732;10.174;2023-03-31T10:17:16;96158.25;;;14.52;80.93
19884;BME280;10104;50.732;10.174;2023-03-31T10:19:56;96161.44;;;14.49;79.88
19884;BME280;10104;50.732;10.174;2023-03-31T10:24:44;96162.56;;;14.58;78.84
19884;BME280;10104;50.732;10.174;2023-03-31T10:27:16;96160.47;;;15.08;77.80
19884;BME280;10104;50.732;10.174;2023-03-31T10:29:40;96156.78;;;15.19;79.47
19884;BME280;10104;50.732;10.174;2023-03-31T10:32:04;96173.50;;;14.99;79.15
19884;BME280;10104;50.732;10.174;2023-03-31T10:34:29;96169.81;;;15.10;79.72
19884;BME280;10104;50.732;10.174;2023-03-31T10:36:51;96164.53;;;15.25;81.35
19884;BME280;10104;50.732;10.174;2023-03-31T10:39:15;96154.34;;;15.69;77.09
19884;BME280;10104;50.732;10.174;2023-03-31T10:41:38;96154.66;;;15.93;79.24
19884;BME280;10104;50.732;10.174;2023-03-31T10:44:03;96150.94;;;16.09;77.05
19884;BME280;10104;50.732;10.174;2023-03-31T10:46:47;96144.22;;;15.71;74.77
19884;BME280;10104;50.732;10.174;2023-03-31T10:49:24;96140.50;;;15.88;75.44
19884;BME280;10104;50.732;10.174;2023-03-31T10:51:51;96137.31;;;16.06;73.56
19884;BME280;10104;50.732;10.174;2023-03-31T10:54:13;96130.91;;;16.17;73.54
19884;BME280;10104;50.732;10.174;2023-03-31T10:56:43;96129.06;;;16.33;75.23
19884;BME280;10104;50.732;10.174;2023-03-31T10:59:20;96143.19;;;16.48;72.33
19884;BME280;10104;50.732;10.174;2023-03-31T11:05:02;96141.25;;;15.63;73.31
19884;BME280;10104;50.732;10.174;2023-03-31T11:13:44;96121.28;;;15.96;71.56
19884;BME280;10104;50.732;10.174;2023-03-31T11:19:33;96128.47;;;15.80;69.18
19884;BME280;10104;50.732;10.174;2023-03-31T11:22:17;96121.84;;;15.98;71.83
19884;BME280;10104;50.732;10.174;2023-03-31T11:25:09;96110.34;;;16.12;70.79
19884;BME280;10104;50.732;10.174;2023-03-31T11:27:49;96112.69;;;16.90;68.78
19884;BME280;10104;50.732;10.174;2023-03-31T11:30:28;96103.69;;;16.25;68.22
19884;BME280;10104;50.732;10.174;2023-03-31T11:43:23;96094.56;;;15.81;71.50
19884;BME280;10104;50.732;10.174;2023-03-31T11:46:00;96097.94;;;15.46;71.24
19884;BME280;10104;50.732;10.174;2023-03-31T11:48:56;96084.63;;;14.78;72.52
19884;BME280;10104;50.732;10.174;2023-03-31T11:51:26;96075.63;;;14.42;73.68
19884;BME280;10104;50.732;10.174;2023-03-31T11:53:50;96091.78;;;14.31;77.87
19884;BME280;10104;50.732;10.174;2023-03-31T11:56:15;96099.19;;;13.65;79.31
19884;BME280;10104;50.732;10.174;2023-03-31T11:58:47;96107.84;;;13.50;81.89
19884;BME280;10104;50.732;10.174;2023-03-31T12:01:19;96120.16;;;13.13;80.73
19884;BME280;10104;50.732;10.174;2023-03-31T12:03:52;96165.66;;;12.61;82.29
19884;BME280;10104;50.732;10.174;2023-03-31T12:06:18;96154.97;;;11.49;80.81
19884;BME280;10104;50.732;10.174;2023-03-31T12:11:23;96177.38;;;10.67;91.00
19884;BME280;10104;50.732;10.174;2023-03-31T12:14:10;96228.09;;;10.29;93.97
19884;BME280;10104;50.732;10.174;2023-03-31T12:16:42;96254.88;;;9.72;92.78
19884;BME280;10104;50.732;10.174;2023-03-31T12:19:16;96230.63;;;9.09;94.26
19884;BME280;10104;50.732;10.174;2023-03-31T12:21:46;96234.66;;;8.93;97.65
19884;BME280;10104;50.732;10.174;2023-03-31T12:24:10;96239.25;;;8.80;100.00
19884;BME280;10104;50.732;10.174;2023-03-31T12:26:55;96231.75;;;8.77;100.00
19884;BME280;10104;50.732;10.174;2023-03-31T12:31:47;96224.66;;;8.77;100.00
19884;BME280;10104;50.732;10.174;2023-03-31T12:34:13;96211.38;;;8.84;100.00
19884;BME280;10104;50.732;10.174;2023-03-31T12:36:53;96193.66;;;8.91;100.00
19884;BME280;10104;50.732;10.174;2023-03-31T12:42:12;96188.97;;;9.11;100.00
19884;BME280;10104;50.732;10.174;2023-03-31T12:44:53;96179.78;;;9.14;100.00
19884;BME280;10104;50.732;10.174;2023-03-31T12:47:30;96171.97;;;9.25;100.00
19884;BME280;10104;50.732;10.174;2023-03-31T12:50:16;96166.88;;;9.42;100.00
19884;BME280;10104;50.732;10.174;2023-03-31T12:52:58;96156.13;;;9.55;100.00
19884;BME280;10104;50.732;10.174;2023-03-31T12:55:34;96154.50;;;9.96;99.65
19884;BME280;10104;50.732;10.174;2023-03-31T13:11:18;96093.78;;;16.46;74.36
19884;BME280;10104;50.732;10.174;2023-03-31T13:13:45;96091.59;;;17.48;63.85
19884;BME280;10104;50.732;10.174;2023-03-31T13:16:21;96087.19;;;18.74;59.73
19884;BME280;10104;50.732;10.174;2023-03-31T13:18:49;96087.25;;;19.59;55.13
19884;BME280;10104;50.732;10.174;2023-03-31T13:21:11;96083.78;;;20.28;55.56
19884;BME280;10104;50.732;10.174;2023-03-31T13:23:34;96081.75;;;20.39;49.87
19884;BME280;10104;50.732;10.174;2023-03-31T13:25:58;96075.78;;;21.02;52.37
19884;BME280;10104;50.732;10.174;2023-03-31T13:33:13;96086.31;;;18.49;56.01
19884;BME280;10104;50.732;10.174;2023-03-31T13:35:41;96088.09;;;17.96;60.11
19884;BME280;10104;50.732;10.174;2023-03-31T13:38:24;96097.59;;;18.17;61.32
19884;BME280;10104;50.732;10.174;2023-03-31T13:40:58;96096.16;;;17.91;61.44
19884;BME280;10104;50.732;10.174;2023-03-31T13:43:43;96088.03;;;17.67;62.53
19884;BME280;10104;50.732;10.174;2023-03-31T13:50:28;96089.09;;;17.66;63.54
19884;BME280;10104;50.732;10.174;2023-03-31T13:52:34;96086.56;;;17.36;63.90
19884;BME280;10104;50.732;10.174;2023-03-31T14:06:25;96117.06;;;14.33;78.55
19884;BME280;10104;50.732;10.174;2023-03-31T14:08:53;96080.56;;;14.29;80.72
19884;BME280;10104;50.732;10.174;2023-03-31T14:11:20;96070.78;;;14.02;80.82
19884;BME280;10104;50.732;10.174;2023-03-31T14:13:42;96057.44;;;14.34;78.49
19884;BME280;10104;50.732;10.174;2023-03-31T14:16:04;96069.75;;;14.40;78.65
19884;BME280;10104;50.732;10.174;2023-03-31T14:18:32;96081.22;;;14.41;77.04
19884;BME280;10104;50.732;10.174;2023-03-31T14:23:44;96066.56;;;14.90;78.03
19884;BME280;10104;50.732;10.174;2023-03-31T14:31:37;96055.84;;;15.63;74.00
19884;BME280;10104;50.732;10.174;2023-03-31T14:34:35;96057.22;;;15.91;71.90
19884;BME280;10104;50.732;10.174;2023-03-31T14:37:06;96052.94;;;16.15;71.72
19884;BME280;10104;50.732;10.174;2023-03-31T14:39:37;96059.84;;;16.36;72.23
19884;BME280;10104;50.732;10.174;2023-03-31T14:42:22;96047.00;;;17.33;67.87
19884;BME280;10104;50.732;10.174;2023-03-31T14:44:46;96045.84;;;18.22;60.37
19884;BME280;10104;50.732;10.174;2023-03-31T14:47:26;96037.94;;;18.36;61.88
19884;BME280;10104;50.732;10.174;2023-03-31T14:50:00;96038.44;;;18.90;59.12
19884;BME280;10104;50.732;10.174;2023-03-31T14:52:23;96030.34;;;19.57;57.84
19884;BME280;10104;50.732;10.174;2023-03-31T14:54:45;96036.16;;;18.55;57.85
19884;BME280;10104;50.732;10.174;2023-03-31T14:57:12;96045.13;;;18.11;58.01
19884;BME280;10104;50.732;10.174;2023-03-31T14:59:37;96031.50;;;17.74;60.85
19884;BME280;10104;50.732;10.174;2023-03-31T15:02:01;96040.81;;;17.37;59.67